createdAt,value
2023-01-07T00:01:39.939Z,7.87
2023-01-07T00:04:08.767Z,7.92
2023-01-07T00:06:37.735Z,7.83
2023-01-07T00:09:07.223Z,7.80
2023-01-07T00:11:38.722Z,7.82
2023-01-07T00:14:07.458Z,7.87
2023-01-07T00:16:36.072Z,7.85
2023-01-07T00:19:04.672Z,7.87
2023-01-07T00:21:31.994Z,7.85
2023-01-07T00:24:01.377Z,7.88
2023-01-07T00:26:31.457Z,7.74
2023-01-07T00:28:58.318Z,7.67
2023-01-07T00:31:27.918Z,7.65
2023-01-07T00:33:54.969Z,7.74
2023-01-07T00:36:23.467Z,7.79
2023-01-07T00:38:58.303Z,7.91
2023-01-07T00:41:24.769Z,7.91
2023-01-07T00:43:51.632Z,7.82
2023-01-07T00:46:18.818Z,7.84
2023-01-07T00:48:45.823Z,7.95
2023-01-07T00:51:14.728Z,7.78
2023-01-07T00:53:41.683Z,7.57
2023-01-07T00:56:10.049Z,7.64
2023-01-07T00:58:36.818Z,7.54
2023-01-07T01:01:04.307Z,7.51
2023-01-07T01:03:32.546Z,7.64
2023-01-07T01:06:07.881Z,7.51
2023-01-07T01:08:34.532Z,7.43
2023-01-07T01:11:08.444Z,7.38
2023-01-07T01:13:35.771Z,7.35
2023-01-07T01:16:08.000Z,7.51
2023-01-07T01:18:34.479Z,7.43
2023-01-07T01:21:09.866Z,7.47
2023-01-07T01:23:36.685Z,7.29
2023-01-07T01:26:08.552Z,7.31
2023-01-07T01:28:35.545Z,7.35
2023-01-07T01:31:02.979Z,7.20
2023-01-07T01:33:39.192Z,7.14
2023-01-07T01:36:08.193Z,7.15
2023-01-07T01:38:34.888Z,7.25
2023-01-07T01:41:01.857Z,7.22
2023-01-07T01:43:31.604Z,7.19
2023-01-07T01:46:05.797Z,7.18
2023-01-07T01:48:35.740Z,7.10
2023-01-07T01:51:03.769Z,7.23
2023-01-07T01:53:33.974Z,7.16
2023-01-07T01:56:14.179Z,7.19
2023-01-07T01:58:45.354Z,7.07
2023-01-07T02:01:12.971Z,7.06
2023-01-07T02:03:39.900Z,7.11
2023-01-07T02:06:14.478Z,7.20
2023-01-07T02:08:40.934Z,7.11
2023-01-07T02:11:23.241Z,7.16
2023-01-07T02:14:00.763Z,7.30
2023-01-07T02:16:33.388Z,7.38
2023-01-07T02:19:53.196Z,7.34
2023-01-07T02:22:56.840Z,7.39
2023-01-07T02:25:55.800Z,7.44
2023-01-07T02:28:59.877Z,7.31
2023-01-07T02:32:09.338Z,7.27
2023-01-07T02:34:57.572Z,7.42
2023-01-07T02:37:38.455Z,7.44
2023-01-07T02:40:24.109Z,7.50
2023-01-07T02:43:09.462Z,7.35
2023-01-07T02:46:06.155Z,7.46
2023-01-07T02:48:35.214Z,7.55
2023-01-07T02:51:01.800Z,7.36
2023-01-07T02:53:28.515Z,7.26
2023-01-07T02:56:22.817Z,7.41
2023-01-07T02:59:10.675Z,7.32
2023-01-07T03:01:59.033Z,7.31
2023-01-07T03:04:43.768Z,7.32
2023-01-07T03:07:40.171Z,7.18
2023-01-07T03:10:31.667Z,7.14
2023-01-07T03:13:15.528Z,7.15
2023-01-07T03:15:48.491Z,7.09
2023-01-07T03:18:20.280Z,7.31
2023-01-07T03:20:53.220Z,7.24
2023-01-07T03:23:22.797Z,7.15
2023-01-07T03:25:52.002Z,7.02
2023-01-07T03:28:24.587Z,7.18
2023-01-07T03:30:54.583Z,7.20
2023-01-07T03:33:44.570Z,7.17
2023-01-07T03:36:15.832Z,7.02
2023-01-07T03:38:44.614Z,6.92
2023-01-07T03:41:31.794Z,6.94
2023-01-07T03:43:58.702Z,6.90
2023-01-07T03:46:25.632Z,6.95
2023-01-07T03:48:52.090Z,7.01
2023-01-07T03:51:18.787Z,6.98
2023-01-07T03:53:45.247Z,7.09
2023-01-07T03:56:11.706Z,7.00
2023-01-07T03:58:38.178Z,7.01
2023-01-07T04:01:04.892Z,7.15
2023-01-07T04:03:33.933Z,7.00
2023-01-07T04:06:00.554Z,7.11
2023-01-07T04:08:27.059Z,7.25
2023-01-07T04:10:53.698Z,7.30
2023-01-07T04:13:20.177Z,7.27
2023-01-07T04:15:49.140Z,7.26
2023-01-07T04:18:15.783Z,7.32
2023-01-07T04:20:48.391Z,7.13
2023-01-07T04:23:15.959Z,6.91
2023-01-07T04:25:48.788Z,7.08
2023-01-07T04:28:18.873Z,7.18
2023-01-07T04:30:45.471Z,7.18
2023-01-07T04:33:12.044Z,7.22
2023-01-07T04:35:40.107Z,7.24
2023-01-07T04:38:07.113Z,7.11
2023-01-07T04:40:34.170Z,7.05
2023-01-07T04:43:01.997Z,7.06
2023-01-07T04:45:28.497Z,7.09
2023-01-07T04:47:56.378Z,7.11
2023-01-07T04:50:24.059Z,7.06
2023-01-07T04:52:50.736Z,7.09
2023-01-07T04:55:17.964Z,7.02
2023-01-07T04:57:46.154Z,6.92
2023-01-07T05:00:14.490Z,6.95
2023-01-07T05:02:41.650Z,6.91
2023-01-07T05:05:10.779Z,7.05
2023-01-07T05:07:38.332Z,7.00
2023-01-07T05:10:08.440Z,7.07
2023-01-07T05:12:36.372Z,7.16
2023-01-07T05:15:06.424Z,6.99
2023-01-07T05:17:35.119Z,7.04
2023-01-07T05:20:04.797Z,7.03
2023-01-07T05:22:31.332Z,7.15
2023-01-07T05:24:57.837Z,6.98
2023-01-07T05:27:26.625Z,6.85
2023-01-07T05:29:53.371Z,6.82
2023-01-07T05:32:20.033Z,6.71
2023-01-07T05:34:47.501Z,6.88
2023-01-07T05:37:15.276Z,6.75
2023-01-07T05:39:43.193Z,6.83
2023-01-07T05:42:11.630Z,6.91
2023-01-07T05:44:39.136Z,6.97
2023-01-07T05:47:05.625Z,6.82
2023-01-07T05:49:32.066Z,6.77
2023-01-07T05:51:58.509Z,6.83
2023-01-07T05:54:24.961Z,6.87
2023-01-07T05:56:51.456Z,6.94
2023-01-07T05:59:18.091Z,6.89
2023-01-07T06:01:44.529Z,6.89
2023-01-07T06:04:11.043Z,6.92
2023-01-07T06:06:37.689Z,6.74
2023-01-07T06:09:04.394Z,6.73
2023-01-07T06:11:31.189Z,6.82
2023-01-07T06:13:57.613Z,6.88
2023-01-07T06:16:24.067Z,6.87
2023-01-07T06:18:50.499Z,7.00
2023-01-07T06:21:18.238Z,6.90
2023-01-07T06:23:44.765Z,6.95
2023-01-07T06:26:11.253Z,6.86
2023-01-07T06:28:37.715Z,6.74
2023-01-07T06:31:04.323Z,6.66
2023-01-07T06:33:33.214Z,6.74
2023-01-07T06:35:59.933Z,6.76
2023-01-07T06:38:26.452Z,6.62
2023-01-07T06:40:52.943Z,6.71
2023-01-07T06:43:19.385Z,6.75
2023-01-07T06:45:45.980Z,6.93
2023-01-07T06:48:12.474Z,7.01
2023-01-07T06:50:38.931Z,6.92
2023-01-07T06:53:05.576Z,6.94
2023-01-07T06:55:32.083Z,6.82
2023-01-07T06:57:58.609Z,6.89
2023-01-07T07:00:25.075Z,6.77
2023-01-07T07:02:51.589Z,6.72
2023-01-07T07:05:18.044Z,6.84
2023-01-07T07:07:44.526Z,6.88
2023-01-07T07:10:11.651Z,7.00
2023-01-07T07:12:38.570Z,7.03
2023-01-07T07:15:06.553Z,7.14
2023-01-07T07:17:33.186Z,7.17
2023-01-07T07:20:00.541Z,7.19
2023-01-07T07:22:27.314Z,7.09
2023-01-07T07:25:01.272Z,7.20
2023-01-07T07:27:29.447Z,7.12
2023-01-07T07:29:55.930Z,7.21
2023-01-07T07:32:28.197Z,7.27
2023-01-07T07:34:55.987Z,7.25
2023-01-07T07:37:22.832Z,7.28
2023-01-07T07:39:49.321Z,7.42
2023-01-07T07:42:15.792Z,7.45
2023-01-07T07:44:43.974Z,7.50
2023-01-07T07:47:11.370Z,7.53
2023-01-07T07:49:37.785Z,7.53
2023-01-07T07:52:04.466Z,7.43
2023-01-07T07:54:30.903Z,7.38
2023-01-07T07:56:58.358Z,7.44
2023-01-07T07:59:25.387Z,7.38
2023-01-07T08:01:51.950Z,7.45
2023-01-07T08:04:18.476Z,7.46
2023-01-07T08:06:44.966Z,7.50
2023-01-07T08:09:11.454Z,7.54
2023-01-07T08:11:37.967Z,7.57
2023-01-07T08:14:04.472Z,7.45
2023-01-07T08:16:31.080Z,7.64
2023-01-07T08:18:57.561Z,7.64
2023-01-07T08:21:24.069Z,7.69
2023-01-07T08:23:50.534Z,7.61
2023-01-07T08:26:17.028Z,7.70
2023-01-07T08:28:45.769Z,7.78
2023-01-07T08:31:13.120Z,7.80
2023-01-07T08:33:39.760Z,7.76
2023-01-07T08:36:18.155Z,7.70
2023-01-07T08:38:54.035Z,7.78
2023-01-07T08:41:23.147Z,7.85
2023-01-07T08:43:50.311Z,7.82
2023-01-07T08:46:17.108Z,7.90
2023-01-07T08:48:43.987Z,7.98
2023-01-07T08:51:10.516Z,7.99
2023-01-07T08:53:36.962Z,8.07
2023-01-07T08:56:03.586Z,8.09
2023-01-07T08:58:30.109Z,8.08
2023-01-07T09:01:01.583Z,8.18
2023-01-07T09:03:28.348Z,8.25
2023-01-07T09:05:55.017Z,8.43
2023-01-07T09:08:21.499Z,8.24
2023-01-07T09:10:47.966Z,8.39
2023-01-07T09:13:14.497Z,8.34
2023-01-07T09:15:40.999Z,8.54
2023-01-07T09:18:07.576Z,8.52
2023-01-07T09:20:34.115Z,8.33
2023-01-07T09:23:00.598Z,8.35
2023-01-07T09:25:27.482Z,8.48
2023-01-07T09:27:53.968Z,8.42
2023-01-07T09:30:20.514Z,8.29
2023-01-07T09:32:47.019Z,8.55
2023-01-07T09:35:13.743Z,8.58
2023-01-07T09:37:40.660Z,8.64
2023-01-07T09:40:11.966Z,8.63
2023-01-07T09:42:49.408Z,8.73
2023-01-07T09:45:33.514Z,8.70
2023-01-07T09:48:02.938Z,8.82
2023-01-07T09:50:38.550Z,9.34
2023-01-07T09:53:13.227Z,9.05
2023-01-07T09:56:11.029Z,8.89
2023-01-07T09:58:29.188Z,8.85
2023-01-07T10:01:15.382Z,8.70
2023-01-07T10:03:47.092Z,8.70
2023-01-07T10:06:35.127Z,8.56
2023-01-07T10:09:27.354Z,8.70
2023-01-07T10:12:03.075Z,8.66
2023-01-07T10:14:48.467Z,8.57
2023-01-07T10:17:40.727Z,8.63
2023-01-07T10:20:19.533Z,8.59
2023-01-07T10:22:55.382Z,8.62
2023-01-07T10:25:29.760Z,8.65
2023-01-07T10:28:04.363Z,8.59
2023-01-07T10:30:34.496Z,8.66
2023-01-07T10:33:18.413Z,8.81
2023-01-07T10:35:48.033Z,8.91
2023-01-07T10:38:20.500Z,8.90
2023-01-07T10:40:56.593Z,8.96
2023-01-07T10:43:50.714Z,8.85
2023-01-07T10:46:46.689Z,8.64
2023-01-07T10:49:41.710Z,8.73
2023-01-07T10:52:36.212Z,8.73
2023-01-07T10:55:13.661Z,8.63
2023-01-07T10:57:40.915Z,8.57
2023-01-07T11:00:14.462Z,8.62
2023-01-07T11:02:50.215Z,8.69
2023-01-07T11:05:21.007Z,8.54
2023-01-07T11:07:53.800Z,8.59
2023-01-07T11:10:25.303Z,8.76
2023-01-07T11:12:58.978Z,8.67
2023-01-07T11:15:32.171Z,8.71
2023-01-07T11:18:05.665Z,8.83
2023-01-07T11:20:53.427Z,8.91
2023-01-07T11:23:30.665Z,8.81
2023-01-07T11:26:08.011Z,8.74
2023-01-07T11:28:34.946Z,8.61
2023-01-07T11:31:01.997Z,8.73
2023-01-07T11:34:02.719Z,8.70
2023-01-07T11:36:42.406Z,8.65
2023-01-07T11:39:20.750Z,8.61
2023-01-07T11:41:57.333Z,8.60
2023-01-07T11:44:24.964Z,8.80
2023-01-07T11:46:52.740Z,8.84
2023-01-07T11:49:23.679Z,8.56
2023-01-07T11:51:50.467Z,8.51
2023-01-07T11:54:28.924Z,8.60
2023-01-07T11:57:12.032Z,8.59
2023-01-07T11:59:38.466Z,8.56
2023-01-07T12:02:24.578Z,8.72
2023-01-07T12:04:51.153Z,8.76
2023-01-07T12:07:17.850Z,8.64
2023-01-07T12:09:45.927Z,8.70
2023-01-07T12:12:32.070Z,8.73
2023-01-07T12:15:05.074Z,8.67
2023-01-07T12:17:34.432Z,8.62
2023-01-07T12:20:19.707Z,8.74
2023-01-07T12:23:15.394Z,8.86
2023-01-07T12:26:21.408Z,8.82
2023-01-07T12:28:55.288Z,9.18
2023-01-07T12:31:51.432Z,8.99
2023-01-07T12:34:55.688Z,9.16
2023-01-07T12:37:31.348Z,9.06
2023-01-07T12:40:18.282Z,9.06
2023-01-07T12:42:53.937Z,9.23
2023-01-07T12:45:33.861Z,9.17
2023-01-07T12:48:05.413Z,9.31
2023-01-07T12:50:38.711Z,9.19
2023-01-07T12:53:19.616Z,9.24
2023-01-07T12:55:59.048Z,9.23
2023-01-07T12:58:47.070Z,9.15
2023-01-07T13:01:31.775Z,9.14
2023-01-07T13:04:07.327Z,9.30
2023-01-07T13:06:33.699Z,9.21
2023-01-07T13:09:08.522Z,9.24
2023-01-07T13:11:58.309Z,9.41
2023-01-07T13:14:34.547Z,9.26
2023-01-07T13:17:14.569Z,9.26
2023-01-07T13:19:41.062Z,9.23
2023-01-07T13:22:16.633Z,9.37
2023-01-07T13:25:01.609Z,9.43
2023-01-07T13:28:10.744Z,9.37
2023-01-07T13:31:08.467Z,9.35
2023-01-07T13:33:37.941Z,9.46
2023-01-07T13:36:32.325Z,9.56
2023-01-07T13:39:17.191Z,9.50
2023-01-07T13:42:13.089Z,9.55
2023-01-07T13:44:55.947Z,9.55
2023-01-07T13:47:24.940Z,9.26
2023-01-07T13:50:00.355Z,9.42
2023-01-07T13:52:31.290Z,9.39
2023-01-07T13:55:13.072Z,9.29
2023-01-07T13:57:41.143Z,9.24
2023-01-07T14:00:41.966Z,9.28
2023-01-07T14:03:32.963Z,9.35
2023-01-07T14:06:18.148Z,9.32
2023-01-07T14:08:47.238Z,9.35
2023-01-07T14:11:14.129Z,9.24
2023-01-07T14:14:05.204Z,9.24
2023-01-07T14:16:51.878Z,9.22
2023-01-07T14:19:26.967Z,9.18
2023-01-07T14:22:27.855Z,9.12
2023-01-07T14:25:23.794Z,9.07
2023-01-07T14:27:56.779Z,8.98
2023-01-07T14:30:28.451Z,8.95
2023-01-07T14:33:01.016Z,8.93
2023-01-07T14:35:38.801Z,8.89
2023-01-07T14:38:30.213Z,8.95
2023-01-07T14:41:03.009Z,8.88
2023-01-07T14:43:42.006Z,8.89
2023-01-07T14:46:23.742Z,8.78
2023-01-07T14:49:02.426Z,8.77
2023-01-07T14:51:50.247Z,8.68
2023-01-07T14:54:45.984Z,8.67
2023-01-07T14:57:49.322Z,8.60
2023-01-07T15:00:34.471Z,8.63
2023-01-07T15:03:18.134Z,8.59
2023-01-07T15:06:03.377Z,8.51
2023-01-07T15:09:17.176Z,8.56
2023-01-07T15:12:05.246Z,8.49
2023-01-07T15:15:10.896Z,8.47
2023-01-07T15:17:40.915Z,8.46
2023-01-07T15:20:10.190Z,8.28
2023-01-07T15:22:46.201Z,8.26
2023-01-07T15:25:27.857Z,8.19
2023-01-07T15:28:29.933Z,8.03
2023-01-07T15:31:06.442Z,7.84
2023-01-07T15:34:24.927Z,7.74
2023-01-07T15:36:52.312Z,7.48
2023-01-07T15:39:21.638Z,7.34
2023-01-07T15:41:52.464Z,7.04
2023-01-07T15:44:24.199Z,6.82
2023-01-07T15:46:50.787Z,6.77
2023-01-07T15:49:28.035Z,6.50
2023-01-07T15:51:57.316Z,6.39
2023-01-07T15:54:24.013Z,6.29
2023-01-07T15:56:53.935Z,6.09
2023-01-07T15:59:26.886Z,5.97
2023-01-07T16:02:00.111Z,5.98
2023-01-07T16:04:38.523Z,5.92
2023-01-07T16:07:05.182Z,5.79
2023-01-07T16:09:37.707Z,5.71
2023-01-07T16:12:19.518Z,5.61
2023-01-07T16:14:45.969Z,5.50
2023-01-07T16:17:16.422Z,5.58
2023-01-07T16:19:42.955Z,5.54
2023-01-07T16:22:22.520Z,5.43
2023-01-07T16:24:53.427Z,5.34
2023-01-07T16:27:30.181Z,5.20
2023-01-07T16:29:59.424Z,5.03
2023-01-07T16:32:26.835Z,4.92
2023-01-07T16:35:07.339Z,4.87
2023-01-07T16:37:38.324Z,4.91
2023-01-07T16:40:12.114Z,4.88
2023-01-07T16:42:40.751Z,4.80
2023-01-07T16:45:23.418Z,4.90
2023-01-07T16:48:21.292Z,4.83
2023-01-07T16:50:48.818Z,4.76
2023-01-07T16:53:25.410Z,4.88
2023-01-07T16:56:10.645Z,4.79
2023-01-07T16:58:46.133Z,4.87
2023-01-07T17:01:16.215Z,4.85
2023-01-07T17:03:54.729Z,5.25
2023-01-07T17:06:28.766Z,4.86
2023-01-07T17:08:57.152Z,4.70
2023-01-07T17:11:31.530Z,5.01
2023-01-07T17:13:58.170Z,5.05
2023-01-07T17:16:32.633Z,4.80
2023-01-07T17:19:26.007Z,5.16
2023-01-07T17:21:53.686Z,4.99
2023-01-07T17:24:43.490Z,4.82
2023-01-07T17:27:20.775Z,4.69
2023-01-07T17:29:49.206Z,4.68
2023-01-07T17:32:15.704Z,4.91
2023-01-07T17:34:42.139Z,4.92
2023-01-07T17:37:16.633Z,4.71
2023-01-07T17:39:44.626Z,4.50
2023-01-07T17:42:39.797Z,4.40
2023-01-07T17:45:06.947Z,4.47
2023-01-07T17:47:33.484Z,4.23
2023-01-07T17:50:01.406Z,4.26
2023-01-07T17:52:28.914Z,4.16
2023-01-07T17:54:55.427Z,4.20
2023-01-07T17:57:21.904Z,4.19
2023-01-07T17:59:48.367Z,4.23
2023-01-07T18:02:18.695Z,4.23
2023-01-07T18:04:45.395Z,4.26
2023-01-07T18:07:15.586Z,4.16
2023-01-07T18:09:42.659Z,4.07
2023-01-07T18:12:31.241Z,4.07
2023-01-07T18:14:59.114Z,4.03
2023-01-07T18:17:25.979Z,4.14
2023-01-07T18:19:52.557Z,4.16
2023-01-07T18:22:20.605Z,4.07
2023-01-07T18:24:48.406Z,4.06
2023-01-07T18:27:16.099Z,3.87
2023-01-07T18:29:43.541Z,3.75
2023-01-07T18:32:11.418Z,3.87
2023-01-07T18:34:39.616Z,4.04
2023-01-07T18:37:12.475Z,3.94
2023-01-07T18:39:38.946Z,4.02
2023-01-07T18:42:05.633Z,3.93
2023-01-07T18:44:32.236Z,3.87
2023-01-07T18:46:58.702Z,3.91
2023-01-07T18:49:25.212Z,4.51
2023-01-07T18:51:51.742Z,4.55
2023-01-07T18:54:18.289Z,4.37
2023-01-07T18:56:45.865Z,4.36
2023-01-07T18:59:13.399Z,4.30
2023-01-07T19:01:39.947Z,4.27
2023-01-07T19:04:06.823Z,4.31
2023-01-07T19:06:33.435Z,4.13
2023-01-07T19:09:02.976Z,4.04
2023-01-07T19:11:29.527Z,4.52
2023-01-07T19:13:56.021Z,5.02
2023-01-07T19:16:22.634Z,5.16
2023-01-07T19:18:49.166Z,5.15
2023-01-07T19:21:15.698Z,5.29
2023-01-07T19:23:42.209Z,5.29
2023-01-07T19:26:11.058Z,5.59
2023-01-07T19:28:37.496Z,5.91
2023-01-07T19:31:06.268Z,5.75
2023-01-07T19:33:33.222Z,5.60
2023-01-07T19:36:09.391Z,5.21
2023-01-07T19:38:47.234Z,5.38
2023-01-07T19:41:17.427Z,5.16
2023-01-07T19:43:45.774Z,5.16
2023-01-07T19:46:14.495Z,5.39
2023-01-07T19:48:42.035Z,5.31
2023-01-07T19:51:08.936Z,5.21
2023-01-07T19:53:36.047Z,5.99
2023-01-07T19:56:06.117Z,6.24
2023-01-07T19:58:33.377Z,6.19
2023-01-07T20:01:04.001Z,6.65
2023-01-07T20:03:32.051Z,6.67
2023-01-07T20:06:07.416Z,6.66
2023-01-07T20:08:34.266Z,6.70
2023-01-07T20:11:00.851Z,7.00
2023-01-07T20:13:29.559Z,7.22
2023-01-07T20:15:56.077Z,7.31
2023-01-07T20:18:22.939Z,7.42
2023-01-07T20:20:59.790Z,7.55
2023-01-07T20:23:27.565Z,7.72
2023-01-07T20:25:54.039Z,7.71
2023-01-07T20:28:21.525Z,7.78
2023-01-07T20:30:48.177Z,7.87
2023-01-07T20:33:14.678Z,7.86
2023-01-07T20:35:43.084Z,7.69
2023-01-07T20:38:11.296Z,7.77
2023-01-07T20:40:43.937Z,7.89
2023-01-07T20:43:12.549Z,8.10
2023-01-07T20:45:39.055Z,8.11
2023-01-07T20:48:05.517Z,8.21
2023-01-07T20:50:35.553Z,8.17
2023-01-07T20:53:02.087Z,8.04
2023-01-07T20:55:28.541Z,7.91
2023-01-07T20:57:54.960Z,7.83
2023-01-07T21:00:21.528Z,7.78
2023-01-07T21:02:47.984Z,7.70
2023-01-07T21:05:16.896Z,7.63
2023-01-07T21:07:43.337Z,7.97
2023-01-07T21:10:09.917Z,8.12
2023-01-07T21:12:36.344Z,8.12
2023-01-07T21:15:03.113Z,8.27
2023-01-07T21:17:29.594Z,8.26
2023-01-07T21:19:56.036Z,8.41
2023-01-07T21:22:22.646Z,8.30
2023-01-07T21:24:49.087Z,8.24
2023-01-07T21:27:15.548Z,8.00
2023-01-07T21:29:42.003Z,8.19
2023-01-07T21:32:08.479Z,8.26
2023-01-07T21:34:35.387Z,8.22
2023-01-07T21:37:01.827Z,8.18
2023-01-07T21:39:28.344Z,8.17
2023-01-07T21:41:54.778Z,8.15
2023-01-07T21:44:21.354Z,8.30
2023-01-07T21:46:47.991Z,8.21
2023-01-07T21:49:14.463Z,8.18
2023-01-07T21:51:41.053Z,8.18
2023-01-07T21:54:07.544Z,8.27
2023-01-07T21:56:34.156Z,8.15
2023-01-07T21:59:00.623Z,8.06
2023-01-07T22:01:30.544Z,7.94
2023-01-07T22:03:58.716Z,7.98
2023-01-07T22:06:28.132Z,7.88
2023-01-07T22:08:57.216Z,7.70
2023-01-07T22:11:24.328Z,7.69
2023-01-07T22:13:52.502Z,7.72
2023-01-07T22:16:20.378Z,7.75
2023-01-07T22:18:47.117Z,7.73
2023-01-07T22:21:14.242Z,7.77
2023-01-07T22:23:44.823Z,7.78
2023-01-07T22:26:12.280Z,7.72
2023-01-07T22:28:39.394Z,7.76
2023-01-07T22:31:17.879Z,7.81
2023-01-07T22:33:44.351Z,7.76
2023-01-07T22:36:29.016Z,7.74
2023-01-07T22:39:00.709Z,7.69
2023-01-07T22:41:29.002Z,7.72
2023-01-07T22:43:57.874Z,7.74
2023-01-07T22:46:27.497Z,7.76
2023-01-07T22:48:54.054Z,7.60
2023-01-07T22:51:33.935Z,7.63
2023-01-07T22:54:01.390Z,7.63
2023-01-07T22:56:28.501Z,7.62
2023-01-07T22:58:54.971Z,7.58
2023-01-07T23:01:21.593Z,7.67
2023-01-07T23:03:48.234Z,7.75
2023-01-07T23:06:15.293Z,7.74
2023-01-07T23:08:42.711Z,7.70
2023-01-07T23:11:09.444Z,7.69
2023-01-07T23:13:36.982Z,7.69
2023-01-07T23:16:06.363Z,7.70
2023-01-07T23:18:33.199Z,7.81
2023-01-07T23:20:59.638Z,7.88
2023-01-07T23:23:26.159Z,7.94
2023-01-07T23:25:52.687Z,7.97
2023-01-07T23:28:19.666Z,7.81
2023-01-07T23:30:46.202Z,7.81
2023-01-07T23:33:12.773Z,7.91
2023-01-07T23:35:39.252Z,7.90
2023-01-07T23:38:05.724Z,7.96
2023-01-07T23:40:36.034Z,7.93
2023-01-07T23:43:03.356Z,8.00
2023-01-07T23:45:29.833Z,7.99
2023-01-07T23:47:56.363Z,8.04
2023-01-07T23:50:22.829Z,8.02
2023-01-07T23:52:49.492Z,7.99
2023-01-07T23:55:16.296Z,8.01
2023-01-07T23:57:42.757Z,7.95
